sensor_id;sensor_type;location;lat;lon;timestamp;P1;durP1;ratioP1;P2;durP2;ratioP2
3995;SDS011;2012;49.794;9.722;2024-01-11T00:00:36;36.33;;;17.70;;
3995;SDS011;2012;49.794;9.722;2024-01-11T00:03:03;32.07;;;16.70;;
3995;SDS011;2012;49.794;9.722;2024-01-11T00:05:30;38.60;;;18.10;;
3995;SDS011;2012;49.794;9.722;2024-01-11T00:07:57;33.47;;;17.23;;
3995;SDS011;2012;49.794;9.722;2024-01-11T00:10:24;30.83;;;18.10;;
3995;SDS011;2012;49.794;9.722;2024-01-11T00:12:51;30.90;;;16.87;;
3995;SDS011;2012;49.794;9.722;2024-01-11T00:15:18;34.37;;;16.40;;
3995;SDS011;2012;49.794;9.722;2024-01-11T00:17:45;29.00;;;16.80;;
3995;SDS011;2012;49.794;9.722;2024-01-11T00:20:12;33.27;;;17.83;;
3995;SDS011;2012;49.794;9.722;2024-01-11T00:22:39;32.90;;;18.73;;
3995;SDS011;2012;49.794;9.722;2024-01-11T00:25:06;33.57;;;17.83;;
3995;SDS011;2012;49.794;9.722;2024-01-11T00:27:33;30.60;;;16.90;;
3995;SDS011;2012;49.794;9.722;2024-01-11T00:30:00;33.00;;;15.80;;
3995;SDS011;2012;49.794;9.722;2024-01-11T00:32:27;29.03;;;16.37;;
3995;SDS011;2012;49.794;9.722;2024-01-11T00:34:54;33.50;;;18.07;;
3995;SDS011;2012;49.794;9.722;2024-01-11T00:37:21;29.63;;;16.80;;
3995;SDS011;2012;49.794;9.722;2024-01-11T00:39:48;34.90;;;17.70;;
3995;SDS011;2012;49.794;9.722;2024-01-11T00:42:15;31.83;;;16.57;;
3995;SDS011;2012;49.794;9.722;2024-01-11T00:44:41;33.77;;;17.50;;
3995;SDS011;2012;49.794;9.722;2024-01-11T00:47:08;30.37;;;15.93;;
3995;SDS011;2012;49.794;9.722;2024-01-11T00:49:37;36.00;;;16.93;;
3995;SDS011;2012;49.794;9.722;2024-01-11T00:52:03;44.67;;;18.03;;
3995;SDS011;2012;49.794;9.722;2024-01-11T00:54:30;32.93;;;17.70;;
3995;SDS011;2012;49.794;9.722;2024-01-11T00:56:57;29.83;;;16.57;;
3995;SDS011;2012;49.794;9.722;2024-01-11T00:59:24;32.67;;;17.27;;
3995;SDS011;2012;49.794;9.722;2024-01-11T01:01:51;30.13;;;17.07;;
3995;SDS011;2012;49.794;9.722;2024-01-11T01:04:18;32.80;;;18.07;;
3995;SDS011;2012;49.794;9.722;2024-01-11T01:06:45;36.90;;;17.00;;
3995;SDS011;2012;49.794;9.722;2024-01-11T01:09:12;32.70;;;18.57;;
3995;SDS011;2012;49.794;9.722;2024-01-11T01:11:39;29.87;;;17.00;;
3995;SDS011;2012;49.794;9.722;2024-01-11T01:14:06;30.53;;;17.73;;
3995;SDS011;2012;49.794;9.722;2024-01-11T01:16:33;34.30;;;17.60;;
3995;SDS011;2012;49.794;9.722;2024-01-11T01:19:00;33.97;;;17.07;;
3995;SDS011;2012;49.794;9.722;2024-01-11T01:21:27;28.00;;;16.53;;
3995;SDS011;2012;49.794;9.722;2024-01-11T01:23:54;33.50;;;16.73;;
3995;SDS011;2012;49.794;9.722;2024-01-11T01:26:21;28.10;;;16.83;;
3995;SDS011;2012;49.794;9.722;2024-01-11T01:28:48;35.53;;;18.17;;
3995;SDS011;2012;49.794;9.722;2024-01-11T01:31:14;30.37;;;17.13;;
3995;SDS011;2012;49.794;9.722;2024-01-11T01:33:41;31.30;;;18.00;;
3995;SDS011;2012;49.794;9.722;2024-01-11T01:36:12;32.53;;;16.80;;
3995;SDS011;2012;49.794;9.722;2024-01-11T01:38:39;30.13;;;15.97;;
3995;SDS011;2012;49.794;9.722;2024-01-11T01:41:05;30.53;;;17.17;;
3995;SDS011;2012;49.794;9.722;2024-01-11T01:43:32;31.23;;;17.03;;
3995;SDS011;2012;49.794;9.722;2024-01-11T01:45:59;27.13;;;15.93;;
3995;SDS011;2012;49.794;9.722;2024-01-11T01:48:27;33.40;;;17.93;;
3995;SDS011;2012;49.794;9.722;2024-01-11T01:50:54;32.83;;;16.43;;
3995;SDS011;2012;49.794;9.722;2024-01-11T01:53:22;29.47;;;17.50;;
3995;SDS011;2012;49.794;9.722;2024-01-11T01:55:51;31.33;;;16.67;;
3995;SDS011;2012;49.794;9.722;2024-01-11T01:58:19;26.20;;;15.97;;
3995;SDS011;2012;49.794;9.722;2024-01-11T02:00:48;30.30;;;17.10;;
3995;SDS011;2012;49.794;9.722;2024-01-11T02:03:16;33.43;;;16.73;;
3995;SDS011;2012;49.794;9.722;2024-01-11T02:05:44;33.00;;;16.83;;
3995;SDS011;2012;49.794;9.722;2024-01-11T02:08:12;30.90;;;17.50;;
3995;SDS011;2012;49.794;9.722;2024-01-11T02:10:42;29.20;;;16.87;;
3995;SDS011;2012;49.794;9.722;2024-01-11T02:13:09;31.87;;;17.43;;
3995;SDS011;2012;49.794;9.722;2024-01-11T02:15:38;32.10;;;17.30;;
3995;SDS011;2012;49.794;9.722;2024-01-11T02:18:05;28.40;;;15.73;;
3995;SDS011;2012;49.794;9.722;2024-01-11T02:20:33;27.10;;;15.43;;
3995;SDS011;2012;49.794;9.722;2024-01-11T02:23:04;31.30;;;17.87;;
3995;SDS011;2012;49.794;9.722;2024-01-11T02:25:33;31.20;;;18.00;;
3995;SDS011;2012;49.794;9.722;2024-01-11T02:28:00;31.90;;;17.27;;
3995;SDS011;2012;49.794;9.722;2024-01-11T02:30:27;33.20;;;17.00;;
3995;SDS011;2012;49.794;9.722;2024-01-11T02:32:54;32.10;;;16.73;;
3995;SDS011;2012;49.794;9.722;2024-01-11T02:35:22;28.83;;;16.00;;
3995;SDS011;2012;49.794;9.722;2024-01-11T02:37:50;27.43;;;15.37;;
3995;SDS011;2012;49.794;9.722;2024-01-11T02:40:18;33.03;;;16.43;;
3995;SDS011;2012;49.794;9.722;2024-01-11T02:42:45;31.17;;;16.93;;
3995;SDS011;2012;49.794;9.722;2024-01-11T02:45:12;45.93;;;17.17;;
3995;SDS011;2012;49.794;9.722;2024-01-11T02:47:39;30.53;;;17.13;;
3995;SDS011;2012;49.794;9.722;2024-01-11T02:50:07;29.40;;;16.83;;
3995;SDS011;2012;49.794;9.722;2024-01-11T02:52:34;36.00;;;17.03;;
3995;SDS011;2012;49.794;9.722;2024-01-11T02:55:01;34.37;;;17.50;;
3995;SDS011;2012;49.794;9.722;2024-01-11T02:57:28;35.07;;;17.00;;
3995;SDS011;2012;49.794;9.722;2024-01-11T02:59:55;27.30;;;15.00;;
3995;SDS011;2012;49.794;9.722;2024-01-11T03:02:22;30.03;;;16.80;;
3995;SDS011;2012;49.794;9.722;2024-01-11T03:04:49;35.70;;;18.07;;
3995;SDS011;2012;49.794;9.722;2024-01-11T03:07:16;26.13;;;15.87;;
3995;SDS011;2012;49.794;9.722;2024-01-11T03:09:44;35.97;;;18.00;;
3995;SDS011;2012;49.794;9.722;2024-01-11T03:12:11;29.30;;;18.03;;
3995;SDS011;2012;49.794;9.722;2024-01-11T03:14:38;28.47;;;16.93;;
3995;SDS011;2012;49.794;9.722;2024-01-11T03:17:05;33.00;;;17.47;;
3995;SDS011;2012;49.794;9.722;2024-01-11T03:19:31;25.43;;;16.03;;
3995;SDS011;2012;49.794;9.722;2024-01-11T03:21:58;36.93;;;18.63;;
3995;SDS011;2012;49.794;9.722;2024-01-11T03:24:29;30.20;;;17.43;;
3995;SDS011;2012;49.794;9.722;2024-01-11T03:26:56;29.40;;;18.13;;
3995;SDS011;2012;49.794;9.722;2024-01-11T03:29:22;32.33;;;18.53;;
3995;SDS011;2012;49.794;9.722;2024-01-11T03:31:49;34.00;;;18.07;;
3995;SDS011;2012;49.794;9.722;2024-01-11T03:34:16;32.33;;;17.10;;
3995;SDS011;2012;49.794;9.722;2024-01-11T03:36:43;26.90;;;16.93;;
3995;SDS011;2012;49.794;9.722;2024-01-11T03:39:10;26.37;;;15.90;;
3995;SDS011;2012;49.794;9.722;2024-01-11T03:41:37;30.50;;;17.07;;
3995;SDS011;2012;49.794;9.722;2024-01-11T03:44:09;32.43;;;17.70;;
3995;SDS011;2012;49.794;9.722;2024-01-11T03:46:36;27.43;;;16.73;;
3995;SDS011;2012;49.794;9.722;2024-01-11T03:49:03;26.60;;;16.30;;
3995;SDS011;2012;49.794;9.722;2024-01-11T03:51:30;30.50;;;16.97;;
3995;SDS011;2012;49.794;9.722;2024-01-11T03:53:57;33.60;;;16.57;;
3995;SDS011;2012;49.794;9.722;2024-01-11T03:56:24;30.47;;;16.73;;
3995;SDS011;2012;49.794;9.722;2024-01-11T03:58:51;31.10;;;17.83;;
3995;SDS011;2012;49.794;9.722;2024-01-11T04:01:18;29.40;;;17.10;;
3995;SDS011;2012;49.794;9.722;2024-01-11T04:03:45;35.73;;;17.20;;
3995;SDS011;2012;49.794;9.722;2024-01-11T04:06:22;32.53;;;17.33;;
3995;SDS011;2012;49.794;9.722;2024-01-11T04:08:50;27.87;;;16.87;;
3995;SDS011;2012;49.794;9.722;2024-01-11T04:11:18;28.30;;;17.13;;
3995;SDS011;2012;49.794;9.722;2024-01-11T04:13:45;27.27;;;15.17;;
3995;SDS011;2012;49.794;9.722;2024-01-11T04:16:11;34.17;;;18.33;;
3995;SDS011;2012;49.794;9.722;2024-01-11T04:18:38;30.30;;;17.63;;
3995;SDS011;2012;49.794;9.722;2024-01-11T04:21:05;27.20;;;16.10;;
3995;SDS011;2012;49.794;9.722;2024-01-11T04:23:32;31.80;;;18.20;;
3995;SDS011;2012;49.794;9.722;2024-01-11T04:25:59;26.93;;;17.30;;
3995;SDS011;2012;49.794;9.722;2024-01-11T04:28:26;30.53;;;17.30;;
3995;SDS011;2012;49.794;9.722;2024-01-11T04:30:53;27.77;;;16.90;;
3995;SDS011;2012;49.794;9.722;2024-01-11T04:33:19;33.20;;;18.00;;
3995;SDS011;2012;49.794;9.722;2024-01-11T04:35:46;29.73;;;16.87;;
3995;SDS011;2012;49.794;9.722;2024-01-11T04:38:13;34.20;;;18.50;;
3995;SDS011;2012;49.794;9.722;2024-01-11T04:40:40;29.90;;;16.73;;
3995;SDS011;2012;49.794;9.722;2024-01-11T04:43:07;43.50;;;23.70;;
3995;SDS011;2012;49.794;9.722;2024-01-11T04:45:35;38.00;;;20.13;;
3995;SDS011;2012;49.794;9.722;2024-01-11T04:48:02;32.33;;;17.63;;
3995;SDS011;2012;49.794;9.722;2024-01-11T04:50:29;34.50;;;19.70;;
3995;SDS011;2012;49.794;9.722;2024-01-11T04:52:56;32.70;;;17.77;;
3995;SDS011;2012;49.794;9.722;2024-01-11T04:55:23;30.13;;;17.87;;
3995;SDS011;2012;49.794;9.722;2024-01-11T04:57:50;31.17;;;18.57;;
3995;SDS011;2012;49.794;9.722;2024-01-11T05:00:17;30.03;;;16.90;;
3995;SDS011;2012;49.794;9.722;2024-01-11T05:02:44;27.43;;;17.67;;
3995;SDS011;2012;49.794;9.722;2024-01-11T05:05:11;38.47;;;19.67;;
3995;SDS011;2012;49.794;9.722;2024-01-11T05:07:38;27.00;;;17.47;;
3995;SDS011;2012;49.794;9.722;2024-01-11T05:10:05;34.10;;;18.40;;
3995;SDS011;2012;49.794;9.722;2024-01-11T05:12:32;27.00;;;16.60;;
3995;SDS011;2012;49.794;9.722;2024-01-11T05:14:59;37.50;;;18.47;;
3995;SDS011;2012;49.794;9.722;2024-01-11T05:17:26;28.47;;;17.43;;
3995;SDS011;2012;49.794;9.722;2024-01-11T05:19:53;29.80;;;17.00;;
3995;SDS011;2012;49.794;9.722;2024-01-11T05:22:20;31.40;;;17.80;;
3995;SDS011;2012;49.794;9.722;2024-01-11T05:24:48;32.83;;;18.70;;
3995;SDS011;2012;49.794;9.722;2024-01-11T05:27:15;32.37;;;18.23;;
3995;SDS011;2012;49.794;9.722;2024-01-11T05:29:42;27.00;;;16.63;;
3995;SDS011;2012;49.794;9.722;2024-01-11T05:32:09;31.00;;;18.20;;
3995;SDS011;2012;49.794;9.722;2024-01-11T05:34:36;32.27;;;19.37;;
3995;SDS011;2012;49.794;9.722;2024-01-11T05:37:03;29.20;;;17.60;;
3995;SDS011;2012;49.794;9.722;2024-01-11T05:39:30;48.90;;;21.53;;
3995;SDS011;2012;49.794;9.722;2024-01-11T05:41:57;43.60;;;23.80;;
3995;SDS011;2012;49.794;9.722;2024-01-11T05:44:23;43.37;;;22.53;;
3995;SDS011;2012;49.794;9.722;2024-01-11T05:46:50;46.50;;;25.37;;
3995;SDS011;2012;49.794;9.722;2024-01-11T05:49:17;52.40;;;26.20;;
3995;SDS011;2012;49.794;9.722;2024-01-11T05:51:44;52.23;;;24.43;;
3995;SDS011;2012;49.794;9.722;2024-01-11T05:54:11;52.60;;;25.37;;
3995;SDS011;2012;49.794;9.722;2024-01-11T05:56:38;55.17;;;26.70;;
3995;SDS011;2012;49.794;9.722;2024-01-11T05:59:05;44.83;;;24.50;;
3995;SDS011;2012;49.794;9.722;2024-01-11T06:01:32;34.90;;;19.43;;
3995;SDS011;2012;49.794;9.722;2024-01-11T06:03:59;30.20;;;18.50;;
3995;SDS011;2012;49.794;9.722;2024-01-11T06:06:25;41.10;;;22.23;;
3995;SDS011;2012;49.794;9.722;2024-01-11T06:08:52;33.23;;;20.20;;
3995;SDS011;2012;49.794;9.722;2024-01-11T06:11:19;33.17;;;20.00;;
3995;SDS011;2012;49.794;9.722;2024-01-11T06:13:46;43.10;;;20.33;;
3995;SDS011;2012;49.794;9.722;2024-01-11T06:16:13;42.70;;;20.70;;
3995;SDS011;2012;49.794;9.722;2024-01-11T06:18:40;35.13;;;20.97;;
3995;SDS011;2012;49.794;9.722;2024-01-11T06:21:07;37.87;;;20.40;;
3995;SDS011;2012;49.794;9.722;2024-01-11T06:23:34;40.60;;;21.90;;
3995;SDS011;2012;49.794;9.722;2024-01-11T06:26:01;40.53;;;21.97;;
3995;SDS011;2012;49.794;9.722;2024-01-11T06:28:28;35.60;;;20.13;;
3995;SDS011;2012;49.794;9.722;2024-01-11T06:30:54;42.70;;;21.90;;
3995;SDS011;2012;49.794;9.722;2024-01-11T06:33:22;38.73;;;22.23;;
3995;SDS011;2012;49.794;9.722;2024-01-11T06:35:49;36.80;;;21.07;;
3995;SDS011;2012;49.794;9.722;2024-01-11T06:38:16;35.70;;;20.23;;
3995;SDS011;2012;49.794;9.722;2024-01-11T06:40:43;35.57;;;20.40;;
3995;SDS011;2012;49.794;9.722;2024-01-11T06:43:10;36.63;;;20.43;;
3995;SDS011;2012;49.794;9.722;2024-01-11T06:45:37;31.50;;;18.80;;
3995;SDS011;2012;49.794;9.722;2024-01-11T06:48:05;28.50;;;17.60;;
3995;SDS011;2012;49.794;9.722;2024-01-11T06:50:33;34.07;;;17.90;;
3995;SDS011;2012;49.794;9.722;2024-01-11T06:53:00;34.33;;;17.60;;
3995;SDS011;2012;49.794;9.722;2024-01-11T06:55:27;46.80;;;23.20;;
3995;SDS011;2012;49.794;9.722;2024-01-11T06:57:54;63.70;;;28.83;;
3995;SDS011;2012;49.794;9.722;2024-01-11T07:00:21;44.30;;;22.67;;
3995;SDS011;2012;49.794;9.722;2024-01-11T07:02:48;49.67;;;24.37;;
3995;SDS011;2012;49.794;9.722;2024-01-11T07:05:15;39.47;;;21.20;;
3995;SDS011;2012;49.794;9.722;2024-01-11T07:07:42;48.73;;;22.50;;
3995;SDS011;2012;49.794;9.722;2024-01-11T07:10:09;37.63;;;20.43;;
3995;SDS011;2012;49.794;9.722;2024-01-11T07:12:36;37.73;;;20.50;;
3995;SDS011;2012;49.794;9.722;2024-01-11T07:15:07;37.93;;;19.53;;
3995;SDS011;2012;49.794;9.722;2024-01-11T07:17:35;32.50;;;18.70;;
3995;SDS011;2012;49.794;9.722;2024-01-11T07:20:02;42.07;;;21.47;;
3995;SDS011;2012;49.794;9.722;2024-01-11T07:22:30;46.87;;;23.97;;
3995;SDS011;2012;49.794;9.722;2024-01-11T07:24:57;42.23;;;22.40;;
3995;SDS011;2012;49.794;9.722;2024-01-11T07:27:24;51.40;;;24.63;;
3995;SDS011;2012;49.794;9.722;2024-01-11T07:29:51;46.67;;;25.30;;
3995;SDS011;2012;49.794;9.722;2024-01-11T07:32:19;52.00;;;25.60;;
3995;SDS011;2012;49.794;9.722;2024-01-11T07:34:45;52.53;;;26.93;;
3995;SDS011;2012;49.794;9.722;2024-01-11T07:37:12;51.83;;;26.07;;
3995;SDS011;2012;49.794;9.722;2024-01-11T07:39:39;46.30;;;24.87;;
3995;SDS011;2012;49.794;9.722;2024-01-11T07:42:06;49.43;;;25.03;;
3995;SDS011;2012;49.794;9.722;2024-01-11T07:44:34;59.53;;;27.77;;
3995;SDS011;2012;49.794;9.722;2024-01-11T07:47:01;54.07;;;26.63;;
3995;SDS011;2012;49.794;9.722;2024-01-11T07:49:28;56.57;;;28.17;;
3995;SDS011;2012;49.794;9.722;2024-01-11T07:51:55;64.87;;;29.70;;
3995;SDS011;2012;49.794;9.722;2024-01-11T07:54:21;57.70;;;27.70;;
3995;SDS011;2012;49.794;9.722;2024-01-11T07:56:48;48.00;;;24.97;;
3995;SDS011;2012;49.794;9.722;2024-01-11T07:59:15;53.40;;;24.30;;
3995;SDS011;2012;49.794;9.722;2024-01-11T08:01:42;44.97;;;22.93;;
3995;SDS011;2012;49.794;9.722;2024-01-11T08:04:09;38.73;;;21.33;;
3995;SDS011;2012;49.794;9.722;2024-01-11T08:06:36;38.00;;;21.00;;
3995;SDS011;2012;49.794;9.722;2024-01-11T08:09:04;36.83;;;20.90;;
3995;SDS011;2012;49.794;9.722;2024-01-11T08:11:31;33.80;;;20.80;;
3995;SDS011;2012;49.794;9.722;2024-01-11T08:14:04;38.17;;;21.43;;
3995;SDS011;2012;49.794;9.722;2024-01-11T08:16:32;42.63;;;23.03;;
3995;SDS011;2012;49.794;9.722;2024-01-11T08:18:59;42.50;;;23.33;;
3995;SDS011;2012;49.794;9.722;2024-01-11T08:21:27;43.07;;;23.23;;
3995;SDS011;2012;49.794;9.722;2024-01-11T08:23:54;41.20;;;24.10;;
3995;SDS011;2012;49.794;9.722;2024-01-11T08:26:28;46.90;;;24.60;;
3995;SDS011;2012;49.794;9.722;2024-01-11T08:28:56;38.93;;;24.43;;
3995;SDS011;2012;49.794;9.722;2024-01-11T08:31:23;36.83;;;21.53;;
3995;SDS011;2012;49.794;9.722;2024-01-11T08:33:51;37.60;;;22.10;;
3995;SDS011;2012;49.794;9.722;2024-01-11T08:36:18;39.53;;;21.70;;
3995;SDS011;2012;49.794;9.722;2024-01-11T08:38:45;39.07;;;22.37;;
3995;SDS011;2012;49.794;9.722;2024-01-11T08:41:12;35.97;;;20.00;;
3995;SDS011;2012;49.794;9.722;2024-01-11T08:43:39;40.07;;;21.77;;
3995;SDS011;2012;49.794;9.722;2024-01-11T08:46:06;38.27;;;21.50;;
3995;SDS011;2012;49.794;9.722;2024-01-11T08:48:33;36.00;;;21.07;;
3995;SDS011;2012;49.794;9.722;2024-01-11T08:51:00;35.90;;;20.30;;
3995;SDS011;2012;49.794;9.722;2024-01-11T08:53:27;37.50;;;21.40;;
3995;SDS011;2012;49.794;9.722;2024-01-11T08:55:54;36.60;;;19.73;;
3995;SDS011;2012;49.794;9.722;2024-01-11T08:58:21;32.30;;;19.50;;
3995;SDS011;2012;49.794;9.722;2024-01-11T09:00:47;31.47;;;18.83;;
3995;SDS011;2012;49.794;9.722;2024-01-11T09:03:14;35.57;;;20.93;;
3995;SDS011;2012;49.794;9.722;2024-01-11T09:05:43;37.90;;;21.10;;
3995;SDS011;2012;49.794;9.722;2024-01-11T09:08:10;38.70;;;21.70;;
3995;SDS011;2012;49.794;9.722;2024-01-11T09:10:37;33.60;;;20.27;;
3995;SDS011;2012;49.794;9.722;2024-01-11T09:13:04;37.10;;;20.50;;
3995;SDS011;2012;49.794;9.722;2024-01-11T09:15:31;36.70;;;20.10;;
3995;SDS011;2012;49.794;9.722;2024-01-11T09:17:58;34.83;;;20.27;;
3995;SDS011;2012;49.794;9.722;2024-01-11T09:20:29;37.50;;;21.10;;
3995;SDS011;2012;49.794;9.722;2024-01-11T09:22:56;32.70;;;19.67;;
3995;SDS011;2012;49.794;9.722;2024-01-11T09:25:23;30.00;;;19.00;;
3995;SDS011;2012;49.794;9.722;2024-01-11T09:27:50;32.20;;;18.50;;
3995;SDS011;2012;49.794;9.722;2024-01-11T09:30:17;31.80;;;18.97;;
3995;SDS011;2012;49.794;9.722;2024-01-11T09:32:44;32.70;;;18.03;;
3995;SDS011;2012;49.794;9.722;2024-01-11T09:35:11;32.03;;;18.47;;
3995;SDS011;2012;49.794;9.722;2024-01-11T09:37:41;33.37;;;18.80;;
3995;SDS011;2012;49.794;9.722;2024-01-11T09:40:10;31.57;;;18.93;;
3995;SDS011;2012;49.794;9.722;2024-01-11T09:42:37;35.20;;;18.90;;
3995;SDS011;2012;49.794;9.722;2024-01-11T09:45:08;32.53;;;18.10;;
3995;SDS011;2012;49.794;9.722;2024-01-11T09:47:38;36.83;;;18.20;;
3995;SDS011;2012;49.794;9.722;2024-01-11T09:50:06;35.33;;;18.07;;
3995;SDS011;2012;49.794;9.722;2024-01-11T09:52:34;29.93;;;16.20;;
3995;SDS011;2012;49.794;9.722;2024-01-11T09:55:02;34.67;;;19.00;;
3995;SDS011;2012;49.794;9.722;2024-01-11T09:57:30;38.53;;;19.83;;
3995;SDS011;2012;49.794;9.722;2024-01-11T09:59:59;37.93;;;19.60;;
3995;SDS011;2012;49.794;9.722;2024-01-11T10:02:30;35.23;;;19.10;;
3995;SDS011;2012;49.794;9.722;2024-01-11T10:04:57;33.97;;;19.67;;
3995;SDS011;2012;49.794;9.722;2024-01-11T10:07:23;38.67;;;19.50;;
3995;SDS011;2012;49.794;9.722;2024-01-11T10:09:51;34.90;;;19.17;;
3995;SDS011;2012;49.794;9.722;2024-01-11T10:12:22;34.57;;;18.30;;
3995;SDS011;2012;49.794;9.722;2024-01-11T10:14:51;30.87;;;18.10;;
3995;SDS011;2012;49.794;9.722;2024-01-11T10:17:19;32.60;;;18.80;;
3995;SDS011;2012;49.794;9.722;2024-01-11T10:19:52;40.37;;;19.53;;
3995;SDS011;2012;49.794;9.722;2024-01-11T10:22:20;35.83;;;19.80;;
3995;SDS011;2012;49.794;9.722;2024-01-11T10:24:50;32.83;;;19.17;;
3995;SDS011;2012;49.794;9.722;2024-01-11T10:27:17;38.73;;;19.70;;
3995;SDS011;2012;49.794;9.722;2024-01-11T10:29:44;37.20;;;20.47;;
3995;SDS011;2012;49.794;9.722;2024-01-11T10:32:12;33.40;;;19.30;;
3995;SDS011;2012;49.794;9.722;2024-01-11T10:34:39;39.70;;;19.63;;
3995;SDS011;2012;49.794;9.722;2024-01-11T10:37:07;30.83;;;18.20;;
3995;SDS011;2012;49.794;9.722;2024-01-11T10:39:36;37.10;;;19.37;;
3995;SDS011;2012;49.794;9.722;2024-01-11T10:42:05;34.70;;;18.90;;
3995;SDS011;2012;49.794;9.722;2024-01-11T10:44:34;38.53;;;20.37;;
3995;SDS011;2012;49.794;9.722;2024-01-11T10:47:03;47.60;;;19.80;;
3995;SDS011;2012;49.794;9.722;2024-01-11T10:49:34;34.47;;;18.00;;
3995;SDS011;2012;49.794;9.722;2024-01-11T10:52:07;34.70;;;18.97;;
3995;SDS011;2012;49.794;9.722;2024-01-11T10:54:34;36.03;;;18.50;;
3995;SDS011;2012;49.794;9.722;2024-01-11T10:57:03;31.53;;;16.70;;
3995;SDS011;2012;49.794;9.722;2024-01-11T10:59:32;31.20;;;17.73;;
3995;SDS011;2012;49.794;9.722;2024-01-11T11:02:03;34.50;;;17.20;;
3995;SDS011;2012;49.794;9.722;2024-01-11T11:04:33;28.17;;;17.47;;
3995;SDS011;2012;49.794;9.722;2024-01-11T11:07:02;32.10;;;17.70;;
3995;SDS011;2012;49.794;9.722;2024-01-11T11:09:29;35.33;;;18.17;;
3995;SDS011;2012;49.794;9.722;2024-01-11T11:11:58;38.27;;;18.53;;
3995;SDS011;2012;49.794;9.722;2024-01-11T11:14:25;36.40;;;17.43;;
3995;SDS011;2012;49.794;9.722;2024-01-11T11:16:54;33.43;;;18.83;;
3995;SDS011;2012;49.794;9.722;2024-01-11T11:19:21;34.80;;;18.00;;
3995;SDS011;2012;49.794;9.722;2024-01-11T11:21:48;35.70;;;18.90;;
3995;SDS011;2012;49.794;9.722;2024-01-11T11:24:17;34.83;;;18.40;;
3995;SDS011;2012;49.794;9.722;2024-01-11T11:26:45;32.13;;;18.07;;
3995;SDS011;2012;49.794;9.722;2024-01-11T11:29:12;30.23;;;17.50;;
3995;SDS011;2012;49.794;9.722;2024-01-11T11:31:46;35.90;;;18.90;;
3995;SDS011;2012;49.794;9.722;2024-01-11T11:34:14;41.30;;;19.00;;
3995;SDS011;2012;49.794;9.722;2024-01-11T11:36:41;30.27;;;17.97;;
3995;SDS011;2012;49.794;9.722;2024-01-11T11:39:13;34.60;;;18.40;;
3995;SDS011;2012;49.794;9.722;2024-01-11T11:41:40;31.97;;;19.00;;
3995;SDS011;2012;49.794;9.722;2024-01-11T11:44:09;31.47;;;16.47;;
3995;SDS011;2012;49.794;9.722;2024-01-11T11:46:40;29.13;;;16.70;;
3995;SDS011;2012;49.794;9.722;2024-01-11T11:49:07;37.07;;;17.73;;
3995;SDS011;2012;49.794;9.722;2024-01-11T11:51:36;32.13;;;16.57;;
3995;SDS011;2012;49.794;9.722;2024-01-11T11:54:06;37.47;;;17.20;;
3995;SDS011;2012;49.794;9.722;2024-01-11T11:56:40;32.80;;;15.87;;
3995;SDS011;2012;49.794;9.722;2024-01-11T11:59:09;37.20;;;17.60;;
3995;SDS011;2012;49.794;9.722;2024-01-11T12:01:36;35.40;;;17.37;;
3995;SDS011;2012;49.794;9.722;2024-01-11T12:04:04;29.40;;;15.87;;
3995;SDS011;2012;49.794;9.722;2024-01-11T12:06:34;33.33;;;17.30;;
3995;SDS011;2012;49.794;9.722;2024-01-11T12:09:01;30.37;;;15.43;;
3995;SDS011;2012;49.794;9.722;2024-01-11T12:11:29;34.00;;;15.90;;
3995;SDS011;2012;49.794;9.722;2024-01-11T12:13:56;33.10;;;17.10;;
3995;SDS011;2012;49.794;9.722;2024-01-11T12:16:24;28.93;;;15.10;;
3995;SDS011;2012;49.794;9.722;2024-01-11T12:18:51;29.07;;;14.20;;
3995;SDS011;2012;49.794;9.722;2024-01-11T12:21:19;26.37;;;15.70;;
3995;SDS011;2012;49.794;9.722;2024-01-11T12:23:46;25.80;;;14.17;;
3995;SDS011;2012;49.794;9.722;2024-01-11T12:26:15;28.17;;;15.70;;
3995;SDS011;2012;49.794;9.722;2024-01-11T12:28:48;28.33;;;15.37;;
3995;SDS011;2012;49.794;9.722;2024-01-11T12:31:16;27.43;;;15.63;;
3995;SDS011;2012;49.794;9.722;2024-01-11T12:33:46;26.63;;;15.03;;
3995;SDS011;2012;49.794;9.722;2024-01-11T12:36:14;31.47;;;15.53;;
3995;SDS011;2012;49.794;9.722;2024-01-11T12:38:48;35.57;;;16.57;;
3995;SDS011;2012;49.794;9.722;2024-01-11T12:41:19;24.60;;;14.60;;
3995;SDS011;2012;49.794;9.722;2024-01-11T12:43:50;34.20;;;17.10;;
3995;SDS011;2012;49.794;9.722;2024-01-11T12:46:18;27.80;;;14.73;;
3995;SDS011;2012;49.794;9.722;2024-01-11T12:48:46;27.90;;;15.43;;
3995;SDS011;2012;49.794;9.722;2024-01-11T12:51:15;24.80;;;14.80;;
3995;SDS011;2012;49.794;9.722;2024-01-11T12:53:47;27.90;;;16.00;;
3995;SDS011;2012;49.794;9.722;2024-01-11T12:56:16;30.60;;;16.37;;
3995;SDS011;2012;49.794;9.722;2024-01-11T12:58:44;28.10;;;15.27;;
3995;SDS011;2012;49.794;9.722;2024-01-11T13:01:13;28.47;;;14.50;;
3995;SDS011;2012;49.794;9.722;2024-01-11T13:03:45;25.80;;;14.20;;
3995;SDS011;2012;49.794;9.722;2024-01-11T13:06:14;28.20;;;15.67;;
3995;SDS011;2012;49.794;9.722;2024-01-11T13:08:42;32.53;;;14.50;;
3995;SDS011;2012;49.794;9.722;2024-01-11T13:11:09;28.60;;;16.17;;
3995;SDS011;2012;49.794;9.722;2024-01-11T13:13:39;24.90;;;14.97;;
3995;SDS011;2012;49.794;9.722;2024-01-11T13:16:06;29.83;;;16.00;;
3995;SDS011;2012;49.794;9.722;2024-01-11T13:18:35;27.00;;;14.50;;
3995;SDS011;2012;49.794;9.722;2024-01-11T13:21:02;25.20;;;14.53;;
3995;SDS011;2012;49.794;9.722;2024-01-11T13:23:29;27.40;;;13.53;;
3995;SDS011;2012;49.794;9.722;2024-01-11T13:25:57;21.80;;;13.60;;
3995;SDS011;2012;49.794;9.722;2024-01-11T13:28:24;22.70;;;13.50;;
3995;SDS011;2012;49.794;9.722;2024-01-11T13:30:53;24.47;;;13.43;;
3995;SDS011;2012;49.794;9.722;2024-01-11T13:33:20;24.77;;;13.53;;
3995;SDS011;2012;49.794;9.722;2024-01-11T13:35:50;20.90;;;11.90;;
3995;SDS011;2012;49.794;9.722;2024-01-11T13:38:17;24.63;;;12.43;;
3995;SDS011;2012;49.794;9.722;2024-01-11T13:40:46;25.23;;;12.67;;
3995;SDS011;2012;49.794;9.722;2024-01-11T13:43:14;24.20;;;11.70;;
3995;SDS011;2012;49.794;9.722;2024-01-11T13:45:41;22.53;;;13.47;;
3995;SDS011;2012;49.794;9.722;2024-01-11T13:48:08;22.70;;;12.10;;
3995;SDS011;2012;49.794;9.722;2024-01-11T13:50:35;21.23;;;11.60;;
3995;SDS011;2012;49.794;9.722;2024-01-11T13:53:02;24.33;;;13.60;;
3995;SDS011;2012;49.794;9.722;2024-01-11T13:55:30;21.60;;;12.57;;
3995;SDS011;2012;49.794;9.722;2024-01-11T13:58:05;21.30;;;12.53;;
3995;SDS011;2012;49.794;9.722;2024-01-11T14:00:32;28.17;;;12.63;;
3995;SDS011;2012;49.794;9.722;2024-01-11T14:02:59;23.43;;;13.03;;
3995;SDS011;2012;49.794;9.722;2024-01-11T14:05:26;21.47;;;11.83;;
3995;SDS011;2012;49.794;9.722;2024-01-11T14:07:53;23.60;;;12.80;;
3995;SDS011;2012;49.794;9.722;2024-01-11T14:10:25;32.87;;;16.30;;
3995;SDS011;2012;49.794;9.722;2024-01-11T14:12:53;24.70;;;12.93;;
3995;SDS011;2012;49.794;9.722;2024-01-11T14:15:20;18.83;;;11.30;;
3995;SDS011;2012;49.794;9.722;2024-01-11T14:17:47;18.47;;;10.73;;
3995;SDS011;2012;49.794;9.722;2024-01-11T14:20:15;19.97;;;11.40;;
3995;SDS011;2012;49.794;9.722;2024-01-11T14:22:43;20.57;;;11.07;;
3995;SDS011;2012;49.794;9.722;2024-01-11T14:25:18;21.80;;;11.00;;
3995;SDS011;2012;49.794;9.722;2024-01-11T14:27:49;17.90;;;10.57;;
3995;SDS011;2012;49.794;9.722;2024-01-11T14:30:16;19.37;;;10.63;;
3995;SDS011;2012;49.794;9.722;2024-01-11T14:32:43;22.93;;;11.17;;
3995;SDS011;2012;49.794;9.722;2024-01-11T14:35:12;20.60;;;11.37;;
3995;SDS011;2012;49.794;9.722;2024-01-11T14:37:40;17.23;;;10.80;;
3995;SDS011;2012;49.794;9.722;2024-01-11T14:40:07;18.73;;;10.77;;
3995;SDS011;2012;49.794;9.722;2024-01-11T14:42:38;18.27;;;10.53;;
3995;SDS011;2012;49.794;9.722;2024-01-11T14:45:05;19.37;;;11.10;;
3995;SDS011;2012;49.794;9.722;2024-01-11T14:47:33;20.20;;;12.00;;
3995;SDS011;2012;49.794;9.722;2024-01-11T14:50:01;20.90;;;10.87;;